Time;durP1;ratioP1;P1;durP2;ratioP2;P2;SDS_P1;SDS_P2;PMS_P1;PMS_P2;Temp;Humidity;BMP_temperature;BMP_pressure;BME280_temperature;BME280_humidity;BME280_pressure;Samples;Min_cycle;Max_cycle;Signal;HPM_P1;HPM_P2
2021/09/11 00:01:02;;;;;;;6.63;3.90;;;;;;;19.82;68.38;101520.66;5067828;28;20024;-49
2021/09/11 00:03:27;;;;;;;10.68;4.10;;;;;;;19.84;68.51;101516.22;5065782;28;20032;-49
2021/09/11 00:05:52;;;;;;;9.10;3.83;;;;;;;19.84;68.61;101515.34;5063948;28;20032;-48
2021/09/11 00:08:18;;;;;;;7.68;4.00;;;;;;;19.90;68.38;101517.03;5067726;28;20032;-51
2021/09/11 00:10:43;;;;;;;8.60;3.95;;;;;;;19.94;68.17;101514.34;5068911;28;20028;-53
2021/09/11 00:13:08;;;;;;;8.13;4.18;;;;;;;19.94;67.89;101521.41;5068748;28;20064;-50
2021/09/11 00:15:34;;;;;;;7.30;4.15;;;;;;;19.94;68.15;101516.09;5062735;28;20028;-50
2021/09/11 00:18:01;;;;;;;8.98;4.35;;;;;;;19.97;68.38;101521.34;5067494;28;20273;-47
2021/09/11 00:20:27;;;;;;;7.88;4.13;;;;;;;20.06;67.95;101522.09;5065583;28;20019;-49
2021/09/11 00:22:52;;;;;;;8.23;4.30;;;;;;;20.09;67.78;101518.50;5068603;28;20056;-52
2021/09/11 00:25:18;;;;;;;9.85;4.55;;;;;;;20.12;67.60;101516.69;5053294;28;20228;-49
2021/09/11 00:27:43;;;;;;;8.85;4.55;;;;;;;20.08;68.01;101519.41;5068335;28;20032;-46
2021/09/11 00:30:09;;;;;;;7.80;3.85;;;;;;;20.10;67.79;101521.13;5070752;28;20510;-48
2021/09/11 00:32:35;;;;;;;11.05;4.50;;;;;;;20.15;68.02;101518.41;5067300;28;20036;-51
2021/09/11 00:35:01;;;;;;;11.27;4.63;;;;;;;20.22;67.75;101520.06;5069671;28;20055;-51
2021/09/11 00:37:26;;;;;;;8.05;4.20;;;;;;;20.23;68.12;101514.75;5066920;28;20134;-49
2021/09/11 00:39:52;;;;;;;10.18;4.38;;;;;;;20.30;67.78;101519.94;5069114;28;20700;-51
2021/09/11 00:42:18;;;;;;;10.75;5.07;;;;;;;20.19;68.31;101515.69;5067169;28;20740;-51
2021/09/11 00:44:44;;;;;;;10.18;4.93;;;;;;;20.39;67.83;101522.47;5051544;28;20170;-47
2021/09/11 00:47:09;;;;;;;9.50;4.95;;;;;;;20.36;68.37;101512.81;5066274;28;20433;-52
2021/09/11 00:49:34;;;;;;;12.23;5.40;;;;;;;20.44;67.73;101512.66;5067083;28;20514;-47
2021/09/11 00:52:00;;;;;;;13.50;6.03;;;;;;;20.48;67.69;101509.97;5064066;28;20436;-52
2021/09/11 00:54:25;;;;;;;15.07;7.05;;;;;;;20.43;67.83;101514.44;5054805;28;20028;-49
2021/09/11 00:56:51;;;;;;;15.60;6.53;;;;;;;20.50;67.60;101515.19;5064164;28;20096;-48
2021/09/11 00:59:16;;;;;;;13.68;6.53;;;;;;;20.51;67.48;101514.31;5067970;28;20771;-46
2021/09/11 01:01:42;;;;;;;14.70;7.10;;;;;;;20.58;67.26;101521.25;5069087;28;20043;-48
2021/09/11 01:04:07;;;;;;;14.13;7.43;;;;;;;20.53;67.07;101521.34;5065662;28;20035;-46
2021/09/11 01:06:33;;;;;;;15.45;7.82;;;;;;;20.53;67.56;101520.47;5062300;28;20019;-46
2021/09/11 01:08:58;;;;;;;15.77;7.90;;;;;;;20.48;67.42;101517.03;5069477;28;20024;-49
2021/09/11 01:11:24;;;;;;;17.13;7.78;;;;;;;20.54;66.88;101525.75;5066046;28;20020;-46
2021/09/11 01:13:49;;;;;;;15.15;8.32;;;;;;;20.53;67.28;101520.47;5049199;28;20029;-48
2021/09/11 01:16:15;;;;;;;16.00;8.52;;;;;;;20.49;67.71;101524.06;5066276;28;20079;-46
2021/09/11 01:18:40;;;;;;;14.35;7.68;;;;;;;20.44;67.66;101516.19;5066344;28;20139;-51
2021/09/11 01:21:06;;;;;;;14.65;7.88;;;;;;;20.44;67.32;101515.31;5066392;28;20069;-50
2021/09/11 01:23:33;;;;;;;13.82;7.60;;;;;;;20.45;67.46;101514.41;5062343;28;20039;-53
2021/09/11 01:25:59;;;;;;;12.18;7.32;;;;;;;20.46;67.48;101518.81;5066337;28;20047;-46
2021/09/11 01:28:27;;;;;;;16.42;7.60;;;;;;;20.50;67.24;101520.50;5052352;28;20028;-46
2021/09/11 01:30:52;;;;;;;17.15;7.80;;;;;;;20.44;68.02;101521.47;5064171;28;20024;-49
2021/09/11 01:33:18;;;;;;;15.50;7.28;;;;;;;20.47;67.48;101518.78;5065547;28;20066;-49
2021/09/11 01:35:43;;;;;;;13.48;7.45;;;;;;;20.39;67.49;101518.03;5066979;28;20055;-48
2021/09/11 01:38:08;;;;;;;17.17;8.15;;;;;;;20.43;67.44;101514.44;5065989;28;20489;-46
2021/09/11 01:40:34;;;;;;;14.00;7.72;;;;;;;20.38;67.76;101526.00;5046668;28;20188;-46
2021/09/11 01:42:59;;;;;;;14.20;7.40;;;;;;;20.41;68.03;101520.66;5062265;28;20578;-47
2021/09/11 01:45:25;;;;;;;15.35;7.75;;;;;;;20.42;67.70;101523.31;5068141;28;20053;-49
2021/09/11 01:47:52;;;;;;;13.25;7.60;;;;;;;20.36;67.99;101515.47;5070685;28;20328;-49
2021/09/11 01:50:19;;;;;;;17.30;8.18;;;;;;;20.37;68.01;101516.34;5071958;28;20031;-47
2021/09/11 01:52:45;;;;;;;15.82;8.50;;;;;;;20.33;67.91;101520.78;5065713;28;20028;-46
2021/09/11 01:55:12;;;;;;;17.17;8.52;;;;;;;20.34;68.03;101527.84;5068274;28;20024;-46
2021/09/11 01:57:43;;;;;;;14.45;8.50;;;;;;;20.33;68.32;101528.72;5069909;28;20040;-51
2021/09/11 02:00:13;;;;;;;14.82;8.30;;;;;;;20.34;68.12;101521.66;5036878;28;20032;-46
2021/09/11 02:02:39;;;;;;;14.77;8.88;;;;;;;20.37;68.06;101526.94;5054523;28;20574;-48
2021/09/11 02:05:06;;;;;;;17.08;9.75;;;;;;;20.40;68.43;101530.38;5068179;28;20040;-47
2021/09/11 02:07:31;;;;;;;19.83;10.07;;;;;;;20.34;68.71;101526.97;5066114;28;20031;-48
2021/09/11 02:09:57;;;;;;;20.67;10.75;;;;;;;20.31;68.89;101524.34;5071561;28;20399;-49
2021/09/11 02:12:22;;;;;;;19.70;9.90;;;;;;;20.33;69.08;101525.22;5073037;28;20505;-50
2021/09/11 02:14:48;;;;;;;21.35;10.45;;;;;;;20.34;68.74;101527.84;5071271;28;20032;-47
2021/09/11 02:17:13;;;;;;;21.92;9.95;;;;;;;20.31;69.33;101533.13;5066569;28;20045;-48
2021/09/11 02:19:38;;;;;;;20.35;10.80;;;;;;;20.30;69.25;101526.13;5068955;28;20514;-47
2021/09/11 02:22:05;;;;;;;18.85;10.27;;;;;;;20.34;69.16;101521.66;5066119;28;20047;-47
2021/09/11 02:24:31;;;;;;;21.77;10.75;;;;;;;20.33;69.19;101527.84;5048531;28;20033;-51
2021/09/11 02:26:57;;;;;;;20.38;10.90;;;;;;;20.32;69.19;101523.41;5070294;28;20026;-47
2021/09/11 02:29:23;;;;;;;18.45;10.65;;;;;;;20.30;69.79;101525.25;5069679;28;20392;-52
2021/09/11 02:31:48;;;;;;;19.85;10.90;;;;;;;20.27;69.87;101526.16;5065810;28;20525;-48
2021/09/11 02:34:13;;;;;;;19.73;10.85;;;;;;;20.25;70.01;101517.34;5051318;28;20575;-48
2021/09/11 02:36:39;;;;;;;24.58;11.25;;;;;;;20.17;70.18;101520.16;5046351;28;20356;-48
2021/09/11 02:39:06;;;;;;;19.60;10.95;;;;;;;20.22;70.13;101523.59;5069026;28;20024;-47
2021/09/11 02:41:32;;;;;;;22.30;10.88;;;;;;;20.27;70.34;101520.84;5060122;28;20056;-46
2021/09/11 02:43:57;;;;;;;21.23;10.73;;;;;;;20.21;70.42;101513.00;5068306;28;20457;-47
2021/09/11 02:46:22;;;;;;;23.00;10.82;;;;;;;20.22;70.14;101515.66;5067790;28;20023;-47
2021/09/11 02:48:48;;;;;;;21.40;10.70;;;;;;;20.29;69.76;101518.19;5070916;28;20056;-51
2021/09/11 02:51:14;;;;;;;22.63;10.38;;;;;;;20.31;69.68;101516.41;5072625;28;20075;-50
2021/09/11 02:53:40;;;;;;;18.73;10.93;;;;;;;20.29;69.81;101518.19;5066259;28;20062;-49
2021/09/11 02:56:05;;;;;;;19.20;10.20;;;;;;;20.23;69.64;101512.09;5069375;28;20118;-49
2021/09/11 02:58:31;;;;;;;21.23;10.65;;;;;;;20.29;70.55;101518.19;5068598;28;20199;-50
2021/09/11 03:00:56;;;;;;;23.73;10.98;;;;;;;20.21;71.07;101508.59;5069856;28;20379;-47
2021/09/11 03:03:21;;;;;;;19.85;10.75;;;;;;;20.22;70.80;101501.53;5068302;28;20028;-47
2021/09/11 03:05:47;;;;;;;23.80;11.18;;;;;;;20.20;71.08;101506.84;5067755;28;20123;-48
2021/09/11 03:08:12;;;;;;;19.27;10.10;;;;;;;20.16;70.94;101505.16;5072495;28;20042;-48
2021/09/11 03:10:38;;;;;;;24.23;10.85;;;;;;;20.20;70.87;101508.63;5067461;28;20446;-47
2021/09/11 03:13:03;;;;;;;23.10;10.88;;;;;;;20.12;71.28;101508.75;5069870;28;20452;-47
2021/09/11 03:15:28;;;;;;;22.95;9.93;;;;;;;20.12;71.43;101503.47;5069715;28;20483;-46
2021/09/11 03:17:54;;;;;;;20.60;10.52;;;;;;;20.11;71.25;101512.31;5066986;28;20686;-46
2021/09/11 03:20:19;;;;;;;23.58;10.00;;;;;;;20.17;71.01;101512.19;5067324;28;20391;-45
2021/09/11 03:22:45;;;;;;;21.02;10.70;;;;;;;20.16;71.10;101518.38;5068854;28;20049;-50
2021/09/11 03:25:11;;;;;;;21.23;9.85;;;;;;;20.16;71.36;101522.81;5068984;28;20028;-47
2021/09/11 03:27:37;;;;;;;23.58;10.65;;;;;;;20.15;71.35;101513.13;5066212;28;20089;-47
2021/09/11 03:30:02;;;;;;;25.98;10.60;;;;;;;20.12;71.53;101507.88;5053867;28;20028;-49
2021/09/11 03:32:28;;;;;;;22.75;10.40;;;;;;;20.14;71.41;101508.72;5063909;28;20039;-48
2021/09/11 03:34:53;;;;;;;22.75;10.43;;;;;;;20.07;71.79;101512.34;5064273;28;20062;-47
2021/09/11 03:37:19;;;;;;;20.95;9.27;;;;;;;20.11;71.58;101514.06;5070753;28;20032;-48
2021/09/11 03:39:44;;;;;;;21.27;10.45;;;;;;;20.09;71.51;101515.84;5066967;28;20024;-51
2021/09/11 03:42:09;;;;;;;24.05;10.55;;;;;;;20.10;71.75;101509.66;5070241;28;20024;-48
2021/09/11 03:44:35;;;;;;;18.70;10.18;;;;;;;20.11;71.72;101519.38;5068680;28;20055;-50
2021/09/11 03:47:00;;;;;;;17.48;9.65;;;;;;;20.13;71.49;101513.13;5066785;28;20031;-50
2021/09/11 03:49:26;;;;;;;20.38;10.25;;;;;;;19.85;72.79;101519.75;5068151;28;20142;-47
2021/09/11 03:51:51;;;;;;;18.75;10.13;;;;;;;20.04;71.68;101515.94;5067614;28;20475;-48
2021/09/11 03:54:17;;;;;;;26.02;11.50;;;;;;;20.03;71.59;101508.00;5070940;28;20315;-46
2021/09/11 03:56:42;;;;;;;22.15;10.75;;;;;;;20.03;71.64;101516.81;5050968;28;20099;-49
2021/09/11 03:59:07;;;;;;;20.67;10.02;;;;;;;20.06;71.48;101521.22;5067257;28;20036;-48
2021/09/11 04:01:33;;;;;;;22.25;10.90;;;;;;;20.03;71.61;101524.78;5066809;28;20146;-49
2021/09/11 04:03:58;;;;;;;20.15;10.35;;;;;;;20.03;71.48;101527.41;5069166;28;20024;-47
2021/09/11 04:06:23;;;;;;;25.25;11.55;;;;;;;20.03;71.59;101529.19;5066231;28;20033;-53
2021/09/11 04:08:49;;;;;;;23.08;11.10;;;;;;;20.00;71.59;101521.31;5067560;28;20116;-49
2021/09/11 04:11:15;;;;;;;25.08;11.50;;;;;;;20.01;71.46;101521.25;5066544;28;20743;-47
2021/09/11 04:13:40;;;;;;;21.80;11.25;;;;;;;19.98;72.05;101523.09;5069798;28;20123;-50
2021/09/11 04:16:05;;;;;;;22.30;11.60;;;;;;;19.94;72.07;101518.75;5060833;28;20348;-47
2021/09/11 04:18:31;;;;;;;21.70;12.00;;;;;;;19.96;71.87;101519.59;5069211;28;20020;-48
2021/09/11 04:20:56;;;;;;;22.05;12.38;;;;;;;19.89;72.29;101520.56;5064820;28;20032;-50
2021/09/11 04:23:21;;;;;;;22.42;13.35;;;;;;;19.92;72.09;101517.88;5068521;28;20036;-48
2021/09/11 04:25:47;;;;;;;26.77;12.70;;;;;;;19.95;72.16;101523.13;5070449;28;20130;-48
2021/09/11 04:28:12;;;;;;;24.50;12.98;;;;;;;19.92;72.67;101520.53;5064026;28;20032;-47
2021/09/11 04:30:38;;;;;;;24.13;12.95;;;;;;;19.92;72.93;101524.06;5070831;28;20109;-51
2021/09/11 04:33:03;;;;;;;25.70;13.73;;;;;;;19.89;73.24;101520.56;5051426;28;20024;-47
2021/09/11 04:35:30;;;;;;;23.98;13.07;;;;;;;19.82;73.25;101523.31;5068996;28;20032;-49
2021/09/11 04:37:56;;;;;;;25.92;13.40;;;;;;;19.87;73.09;101532.97;5067851;28;20024;-48
2021/09/11 04:40:21;;;;;;;29.50;13.55;;;;;;;19.76;73.88;101531.31;5065854;28;20093;-50
2021/09/11 04:42:47;;;;;;;29.15;13.63;;;;;;;19.68;74.09;101532.34;5068408;28;20023;-49
2021/09/11 04:45:12;;;;;;;23.27;12.35;;;;;;;19.72;73.90;101528.75;5072423;28;20131;-47
2021/09/11 04:47:37;;;;;;;27.27;12.50;;;;;;;19.77;73.63;101525.16;5064631;28;20376;-45
2021/09/11 04:50:03;;;;;;;26.50;13.15;;;;;;;19.83;73.45;101533.00;5071011;28;20042;-47
2021/09/11 04:52:28;;;;;;;28.38;13.73;;;;;;;19.78;74.06;101524.25;5066370;28;20601;-46
2021/09/11 04:54:54;;;;;;;27.20;13.32;;;;;;;19.82;73.62;101518.00;5071558;28;20043;-50
2021/09/11 04:57:19;;;;;;;26.50;13.43;;;;;;;19.71;73.92;101527.00;5066929;28;20020;-47
2021/09/11 04:59:45;;;;;;;24.67;13.57;;;;;;;19.64;74.24;101528.84;5068270;28;20028;-49
2021/09/11 05:02:10;;;;;;;26.98;13.70;;;;;;;19.73;73.99;101525.22;5051068;28;20115;-50
2021/09/11 05:04:35;;;;;;;25.45;13.73;;;;;;;19.69;74.18;101534.97;5065149;28;20457;-47
2021/09/11 05:07:01;;;;;;;26.83;13.90;;;;;;;19.62;74.47;101533.31;5070106;28;20266;-46
2021/09/11 05:09:26;;;;;;;24.55;13.27;;;;;;;19.67;74.60;101527.94;5065899;28;20036;-48
2021/09/11 05:11:52;;;;;;;30.95;13.70;;;;;;;19.68;74.15;101530.56;5070078;28;20028;-47
2021/09/11 05:14:17;;;;;;;27.38;12.98;;;;;;;19.69;74.09;101523.53;5067556;28;20084;-48
2021/09/11 05:16:43;;;;;;;24.60;13.82;;;;;;;19.71;74.26;101534.94;5067625;28;20030;-47
2021/09/11 05:19:08;;;;;;;23.15;12.50;;;;;;;19.74;74.10;101534.91;5065673;28;20031;-48
2021/09/11 05:21:34;;;;;;;24.80;13.02;;;;;;;19.71;74.31;101542.88;5068246;28;20023;-48
2021/09/11 05:23:59;;;;;;;25.20;13.13;;;;;;;19.65;74.70;101538.53;5069128;28;20028;-49
2021/09/11 05:26:24;;;;;;;30.73;13.40;;;;;;;19.77;74.20;101537.50;5068800;28;20611;-47
2021/09/11 05:28:50;;;;;;;28.38;13.80;;;;;;;19.75;74.53;101539.31;5055633;28;20036;-49
2021/09/11 05:31:15;;;;;;;29.90;13.77;;;;;;;19.77;74.37;101537.50;5071285;28;20018;-46
2021/09/11 05:33:41;;;;;;;29.60;14.07;;;;;;;19.80;74.16;101530.41;5066912;28;20128;-47
2021/09/11 05:36:06;;;;;;;27.67;13.82;;;;;;;19.86;73.94;101534.72;5072674;28;20028;-47
2021/09/11 05:38:31;;;;;;;28.52;14.18;;;;;;;19.90;73.78;101536.44;5070993;28;20020;-49
2021/09/11 05:40:57;;;;;;;30.55;14.13;;;;;;;19.93;73.61;101536.41;5071724;28;20103;-49
2021/09/11 05:43:24;;;;;;;31.80;15.18;;;;;;;19.85;74.12;101546.22;5074367;28;20078;-50
2021/09/11 05:45:50;;;;;;;29.20;14.88;;;;;;;19.88;74.22;101547.94;5069566;28;20055;-50
2021/09/11 05:48:15;;;;;;;32.28;14.88;;;;;;;19.85;74.02;101548.84;5069762;28;20123;-48
2021/09/11 05:50:41;;;;;;;31.90;13.77;;;;;;;19.95;73.81;101554.88;5069856;28;20127;-47
2021/09/11 05:53:06;;;;;;;29.55;14.50;;;;;;;20.00;73.46;101553.94;5071843;28;20026;-47
2021/09/11 05:55:32;;;;;;;30.20;14.77;;;;;;;19.99;73.50;101553.97;5072118;28;20549;-47
2021/09/11 05:57:57;;;;;;;32.30;15.68;;;;;;;20.02;73.66;101573.31;5070450;28;20169;-47
2021/09/11 06:00:22;;;;;;;30.27;15.43;;;;;;;20.08;73.42;101573.22;5072152;28;20028;-48
2021/09/11 06:02:48;;;;;;;30.23;15.85;;;;;;;20.00;73.62;101571.59;5069382;28;20028;-47
2021/09/11 06:05:13;;;;;;;33.67;16.25;;;;;;;20.03;73.71;101568.88;5054023;28;20036;-49
2021/09/11 06:07:40;;;;;;;32.67;15.50;;;;;;;20.11;73.41;101582.91;5066460;28;20403;-47
2021/09/11 06:10:09;;;;;;;31.15;15.50;;;;;;;20.08;73.39;101588.22;5069969;28;20030;-52
2021/09/11 06:12:34;;;;;;;31.15;14.95;;;;;;;20.03;73.57;101588.28;5068893;28;20020;-46
2021/09/11 06:15:00;;;;;;;31.27;15.23;;;;;;;20.13;73.04;101589.91;5050724;28;20058;-49
2021/09/11 06:17:25;;;;;;;32.03;16.13;;;;;;;20.12;72.82;101588.19;5061809;28;20038;-48
2021/09/11 06:19:50;;;;;;;30.67;15.70;;;;;;;20.04;73.31;101597.13;5067625;28;20012;-48
2021/09/11 06:22:15;;;;;;;33.88;15.57;;;;;;;20.08;73.25;101597.03;5070182;28;20375;-47
2021/09/11 06:24:41;;;;;;;34.15;16.02;;;;;;;20.08;73.18;101594.38;5053121;28;20116;-51
2021/09/11 06:27:07;;;;;;;34.15;16.25;;;;;;;20.16;73.02;101597.81;5068990;28;20523;-47
2021/09/11 06:29:33;;;;;;;29.67;15.15;;;;;;;20.16;72.96;101591.63;5048668;28;20407;-48
2021/09/11 06:31:58;;;;;;;37.38;16.63;;;;;;;20.17;73.26;101590.75;5068739;28;20028;-47
2021/09/11 06:34:24;;;;;;;30.33;15.65;;;;;;;20.20;73.35;101603.94;5066018;28;20035;-48
2021/09/11 06:36:50;;;;;;;29.58;14.20;;;;;;;20.24;72.90;101597.72;5068702;28;20336;-47
2021/09/11 06:39:15;;;;;;;33.10;15.45;;;;;;;20.20;72.61;101593.34;5068397;28;20024;-50
2021/09/11 06:41:40;;;;;;;31.23;14.95;;;;;;;20.23;72.73;101602.13;5067666;28;20529;-50
2021/09/11 06:44:06;;;;;;;28.73;14.65;;;;;;;20.26;72.76;101601.19;5067173;28;20068;-48
2021/09/11 06:46:31;;;;;;;26.73;14.35;;;;;;;20.26;72.68;101602.06;5063926;28;20074;-49
2021/09/11 06:48:57;;;;;;;26.48;13.52;;;;;;;20.33;72.84;101605.53;5072694;28;20079;-48
2021/09/11 06:51:22;;;;;;;29.25;13.57;;;;;;;20.40;72.70;101608.97;5069348;28;20482;-46
2021/09/11 06:53:49;;;;;;;28.55;13.52;;;;;;;20.37;73.18;101609.03;5064954;28;20478;-46
2021/09/11 06:56:15;;;;;;;25.58;13.43;;;;;;;20.43;72.49;101611.59;5064532;28;20063;-48
2021/09/11 06:58:40;;;;;;;26.70;13.10;;;;;;;20.41;72.79;101611.59;5027827;28;1232955;-50
2021/09/11 07:01:06;;;;;;;29.30;13.20;;;;;;;20.49;72.53;101611.50;5064667;28;20046;-48
2021/09/11 07:03:31;;;;;;;26.20;12.95;;;;;;;20.51;72.17;101613.19;5070228;28;20027;-47
2021/09/11 07:05:58;;;;;;;28.20;12.82;;;;;;;20.59;71.78;101615.72;5068919;28;20709;-48
2021/09/11 07:08:24;;;;;;;29.90;14.02;;;;;;;20.52;71.79;101614.06;5066529;28;20769;-48
2021/09/11 07:10:49;;;;;;;31.38;13.82;;;;;;;20.53;71.90;101614.06;5054247;28;20247;-48
2021/09/11 07:13:15;;;;;;;28.70;13.48;;;;;;;20.60;72.08;101617.47;5067423;28;20415;-47
2021/09/11 07:15:40;;;;;;;29.02;13.77;;;;;;;20.76;71.65;101621.63;5067663;28;20106;-48
2021/09/11 07:18:05;;;;;;;26.75;13.30;;;;;;;20.90;71.49;101627.56;5074232;28;20142;-51
2021/09/11 07:20:31;;;;;;;26.42;12.90;;;;;;;20.88;71.24;101624.06;5065276;28;20038;-48
2021/09/11 07:22:57;;;;;;;27.33;12.65;;;;;;;21.04;70.45;101627.34;5069906;28;20078;-47
2021/09/11 07:25:22;;;;;;;26.30;13.43;;;;;;;21.05;70.44;101629.94;5070965;28;20028;-49
2021/09/11 07:27:49;;;;;;;25.90;13.27;;;;;;;21.08;69.69;101636.97;5068198;28;20071;-49
2021/09/11 07:30:15;;;;;;;27.67;13.57;;;;;;;21.06;70.26;101634.34;5071412;28;20098;-48
2021/09/11 07:32:40;;;;;;;31.35;13.85;;;;;;;21.03;70.62;101629.13;5069879;28;20037;-49
2021/09/11 07:35:06;;;;;;;27.45;12.60;;;;;;;21.01;70.76;101636.22;5068675;28;20028;-49
2021/09/11 07:37:32;;;;;;;22.48;11.93;;;;;;;20.99;70.01;101634.47;5067107;28;20030;-48
2021/09/11 07:39:57;;;;;;;31.98;14.10;;;;;;;20.90;70.65;101637.31;5068768;28;20029;-47
2021/09/11 07:42:22;;;;;;;28.67;13.45;;;;;;;20.97;70.52;101646.91;5067049;28;20031;-46
2021/09/11 07:44:48;;;;;;;28.52;13.82;;;;;;;20.86;71.01;101638.25;5052951;28;20031;-48
2021/09/11 07:47:13;;;;;;;30.65;14.20;;;;;;;20.98;71.51;101638.91;5064055;28;20256;-48
2021/09/11 07:49:39;;;;;;;23.65;13.07;;;;;;;21.18;70.87;101646.53;5065779;28;20040;-48
2021/09/11 07:52:05;;;;;;;27.65;13.23;;;;;;;21.26;70.29;101643.75;5066529;28;20020;-48
2021/09/11 07:54:31;;;;;;;27.05;12.70;;;;;;;21.62;69.59;101637.75;5048382;28;20034;-48
2021/09/11 07:56:56;;;;;;;24.70;13.73;;;;;;;21.68;68.39;101648.22;5067155;28;20032;-48
2021/09/11 07:59:21;;;;;;;23.45;12.77;;;;;;;21.75;67.93;101651.63;5053869;28;20036;-47
2021/09/11 08:01:47;;;;;;;28.70;13.77;;;;;;;21.90;67.26;101655.75;5052403;28;20485;-47
2021/09/11 08:04:12;;;;;;;25.65;13.52;;;;;;;21.98;66.96;101653.84;5069169;28;20024;-48
2021/09/11 08:06:37;;;;;;;30.38;13.93;;;;;;;21.93;67.18;101659.22;5055800;28;20247;-47
2021/09/11 08:09:03;;;;;;;27.40;14.05;;;;;;;21.72;68.07;101667.59;5068336;28;20032;-50
2021/09/11 08:11:28;;;;;;;24.23;13.02;;;;;;;21.74;68.06;101660.50;5066538;28;20027;-46
2021/09/11 08:13:54;;;;;;;27.35;12.95;;;;;;;21.75;69.39;101657.81;5060599;28;20024;-49
2021/09/11 08:16:20;;;;;;;28.60;13.77;;;;;;;21.97;67.50;101655.63;5065023;28;20092;-51
2021/09/11 08:18:45;;;;;;;23.73;12.70;;;;;;;22.10;67.11;101657.09;5046570;28;20038;-49
2021/09/11 08:21:11;;;;;;;27.67;14.05;;;;;;;22.10;66.94;101656.22;5049899;28;20047;-49
2021/09/11 08:23:36;;;;;;;25.95;14.25;;;;;;;22.29;66.82;101662.88;5065693;28;20438;-50
2021/09/11 08:26:04;;;;;;;24.17;13.70;;;;;;;22.50;66.66;101664.19;5063045;28;20090;-48
2021/09/11 08:28:29;;;;;;;27.80;14.13;;;;;;;22.79;66.82;101666.19;5069394;28;20042;-46
2021/09/11 08:30:55;;;;;;;27.58;13.27;;;;;;;23.10;65.00;101671.59;5066604;28;20431;-47
2021/09/11 08:33:20;;;;;;;26.98;14.25;;;;;;;23.16;64.62;101669.66;5051832;28;20028;-50
2021/09/11 08:35:45;;;;;;;25.90;13.23;;;;;;;23.20;64.10;101673.97;5065373;28;20399;-47
2021/09/11 08:38:11;;;;;;;25.13;13.18;;;;;;;23.14;63.85;101675.94;5066418;28;20055;-52
2021/09/11 08:40:36;;;;;;;26.20;13.50;;;;;;;23.13;65.08;101682.16;5068672;28;20030;-51
2021/09/11 08:43:02;;;;;;;24.55;13.40;;;;;;;23.09;64.34;101689.34;5068678;28;20028;-47
2021/09/11 08:45:28;;;;;;;23.17;12.68;;;;;;;23.04;63.79;101693.91;5061641;28;20032;-48
2021/09/11 08:47:53;;;;;;;21.70;13.10;;;;;;;22.96;64.65;101691.44;5063931;28;20035;-52
2021/09/11 08:50:19;;;;;;;20.52;12.88;;;;;;;22.91;64.70;101692.47;5049563;28;20028;-50
2021/09/11 08:52:49;;;;;;;21.77;12.75;;;;;;;22.99;65.18;101687.84;5066498;28;20040;-53
2021/09/11 08:55:16;;;;;;;23.08;13.30;;;;;;;22.99;65.59;101699.31;5049116;28;20043;-53
2021/09/11 08:58:05;;;;;;;20.77;12.93;;;;;;;23.25;64.42;101695.13;5067431;28;20048;-48
2021/09/11 09:00:51;;;;;;;20.65;11.63;;;;;;;23.48;64.22;101699.91;5044166;28;20578;-48
2021/09/11 09:03:24;;;;;;;21.50;11.90;;;;;;;23.64;63.49;101694.13;5064003;28;20611;-49
2021/09/11 09:05:50;;;;;;;21.70;11.65;;;;;;;23.76;63.94;101695.56;5064938;28;20040;-50
2021/09/11 09:08:25;;;;;;;21.45;11.50;;;;;;;23.78;63.22;101697.28;5045491;28;20027;-50
2021/09/11 09:10:51;;;;;;;21.00;11.70;;;;;;;23.78;62.50;101696.41;5039381;28;20048;-49
2021/09/11 09:13:16;;;;;;;21.58;10.77;;;;;;;23.70;62.83;101703.72;5063332;28;20028;-49
2021/09/11 09:15:42;;;;;;;17.85;10.27;;;;;;;23.71;62.89;101701.03;5063973;28;20051;-49
2021/09/11 09:18:07;;;;;;;15.57;9.95;;;;;;;23.85;62.58;101701.47;5059111;28;20569;-47
2021/09/11 09:20:32;;;;;;;17.15;10.40;;;;;;;23.96;63.30;101709.19;5044861;28;20034;-50
2021/09/11 09:22:58;;;;;;;16.52;10.30;;;;;;;23.99;63.01;101706.44;5062598;28;20481;-47
2021/09/11 09:25:31;;;;;;;16.52;10.75;;;;;;;23.84;63.24;101705.09;5064238;28;20515;-48
2021/09/11 09:27:58;;;;;;;16.25;10.07;;;;;;;24.00;62.53;101697.53;5065859;28;20483;-47
2021/09/11 09:30:38;;;;;;;21.92;11.07;;;;;;;24.02;62.44;101702.81;5061409;28;20058;-50
2021/09/11 09:33:04;;;;;;;14.57;10.32;;;;;;;24.09;61.47;101704.38;5046292;28;20357;-51
2021/09/11 09:35:29;;;;;;;16.73;10.32;;;;;;;24.02;62.98;101703.69;5064402;28;20034;-48
2021/09/11 09:38:00;;;;;;;18.35;10.50;;;;;;;24.06;62.69;101708.00;5066223;28;20040;-47
2021/09/11 09:40:41;;;;;;;19.35;11.07;;;;;;;23.74;63.96;101708.03;5065828;28;20111;-50
2021/09/11 09:43:07;;;;;;;21.60;11.55;;;;;;;23.96;63.85;101705.66;5027909;28;20426;-48
2021/09/11 09:45:34;;;;;;;17.40;10.68;;;;;;;24.16;62.87;101709.47;5067791;28;20043;-52
2021/09/11 09:48:05;;;;;;;17.55;10.60;;;;;;;24.32;61.19;101709.94;5065645;28;20062;-49
2021/09/11 09:50:39;;;;;;;21.02;11.10;;;;;;;24.29;62.82;101704.69;5067522;28;20031;-49
2021/09/11 09:53:05;;;;;;;16.10;10.30;;;;;;;24.33;60.79;101710.81;5061483;28;20028;-47
2021/09/11 09:55:30;;;;;;;20.48;10.93;;;;;;;24.21;61.32;101710.22;5064777;28;20146;-48
2021/09/11 09:57:56;;;;;;;17.92;11.43;;;;;;;24.13;61.79;101717.56;5065910;28;20525;-49
2021/09/11 10:00:22;;;;;;;21.33;11.20;;;;;;;24.02;62.21;101706.34;5059993;28;20406;-48
2021/09/11 10:02:48;;;;;;;19.80;11.27;;;;;;;23.83;64.54;101710.44;5066387;28;20016;-49
2021/09/11 10:05:14;;;;;;;16.55;10.85;;;;;;;23.94;62.23;101715.47;5065258;28;20029;-50
2021/09/11 10:07:46;;;;;;;19.25;11.43;;;;;;;23.84;62.46;101709.53;5067067;28;20031;-48
2021/09/11 10:10:11;;;;;;;21.42;12.43;;;;;;;23.81;62.72;101712.28;5067305;28;20055;-48
2021/09/11 10:12:47;;;;;;;16.58;11.15;;;;;;;24.07;62.05;101709.75;5047379;28;21310;-48
2021/09/11 10:15:28;;;;;;;19.60;11.57;;;;;;;23.97;63.48;101708.25;5057947;28;20028;-46
2021/09/11 10:17:55;;;;;;;15.70;11.50;;;;;;;24.01;62.17;101699.28;5058284;28;20486;-51
2021/09/11 10:20:21;;;;;;;17.30;10.90;;;;;;;24.01;62.38;101701.06;5050291;28;20016;-46
2021/09/11 10:23:03;;;;;;;19.15;10.70;;;;;;;23.76;63.63;101707.09;5064366;28;20042;-49
2021/09/11 10:25:46;;;;;;;18.55;10.65;;;;;;;23.55;65.00;101712.13;5061445;28;20028;-49
2021/09/11 10:28:21;;;;;;;20.00;12.35;;;;;;;23.29;66.24;101712.78;5052117;28;20113;-52
2021/09/11 10:31:05;;;;;;;18.15;11.07;;;;;;;23.14;66.49;101711.38;5069344;28;20290;-48
2021/09/11 10:33:45;;;;;;;16.95;10.98;;;;;;;22.93;66.90;101707.47;5066574;28;20036;-46
2021/09/11 10:36:22;;;;;;;14.63;10.35;;;;;;;23.02;66.08;101707.25;5066165;28;20205;-50
2021/09/11 10:38:51;;;;;;;16.33;10.02;;;;;;;23.02;66.94;101706.38;5067608;28;20028;-48
2021/09/11 10:41:16;;;;;;;17.30;10.82;;;;;;;23.06;66.62;101710.69;5049953;28;20028;-48
2021/09/11 10:44:05;;;;;;;18.55;10.68;;;;;;;23.10;67.27;101703.53;5068578;28;20038;-54
2021/09/11 10:46:46;;;;;;;17.63;9.43;;;;;;;23.21;67.25;101706.78;5063039;28;20134;-49
2021/09/11 10:49:25;;;;;;;17.45;9.80;;;;;;;23.38;67.46;101709.88;5069055;28;20028;-48
2021/09/11 10:52:11;;;;;;;17.05;9.10;;;;;;;23.67;67.11;101701.13;5069702;28;20429;-50
2021/09/11 10:54:38;;;;;;;17.23;9.05;;;;;;;23.97;65.04;101692.28;5065914;28;20100;-49
2021/09/11 10:57:15;;;;;;;12.15;7.93;;;;;;;24.24;63.48;101703.94;5035584;28;20091;-50
2021/09/11 10:59:48;;;;;;;12.82;7.70;;;;;;;24.33;63.22;101690.38;5047839;28;20434;-50
2021/09/11 11:02:32;;;;;;;11.15;7.55;;;;;;;24.35;64.17;101700.94;5052456;28;20031;-47
2021/09/11 11:04:58;;;;;;;;;;;;;;;23.97;63.18;101694.94;5066267;28;20031;-48
2021/09/11 11:07:28;;;;;;;23.58;7.82;;;;;;;23.47;66.10;101704.34;5068295;28;19950;-49
2021/09/11 11:09:57;;;;;;;13.48;7.20;;;;;;;23.13;66.18;101709.63;5067322;28;20216;-49